sensor_id;sensor_type;location;lat;lon;timestamp;P1;durP1;ratioP1;P2;durP2;ratioP2
10154;SDS011;5118;48.570;7.916;2022-08-16T00:01:40;8.33;;;7.33;;
10154;SDS011;5118;48.570;7.916;2022-08-16T00:04:10;8.53;;;7.13;;
10154;SDS011;5118;48.570;7.916;2022-08-16T00:06:39;7.63;;;6.87;;
10154;SDS011;5118;48.570;7.916;2022-08-16T00:09:09;8.17;;;7.37;;
10154;SDS011;5118;48.570;7.916;2022-08-16T00:11:40;8.40;;;7.60;;
10154;SDS011;5118;48.570;7.916;2022-08-16T00:14:13;7.57;;;6.93;;
10154;SDS011;5118;48.570;7.916;2022-08-16T00:16:44;7.87;;;7.07;;
10154;SDS011;5118;48.570;7.916;2022-08-16T00:19:34;8.13;;;7.33;;
10154;SDS011;5118;48.570;7.916;2022-08-16T00:22:07;8.60;;;6.80;;
10154;SDS011;5118;48.570;7.916;2022-08-16T00:24:39;7.63;;;7.00;;
10154;SDS011;5118;48.570;7.916;2022-08-16T00:27:12;7.67;;;6.93;;
10154;SDS011;5118;48.570;7.916;2022-08-16T00:29:44;7.70;;;6.90;;
10154;SDS011;5118;48.570;7.916;2022-08-16T00:32:13;7.30;;;6.60;;
10154;SDS011;5118;48.570;7.916;2022-08-16T00:34:44;7.33;;;6.73;;
10154;SDS011;5118;48.570;7.916;2022-08-16T00:37:21;7.37;;;6.67;;
10154;SDS011;5118;48.570;7.916;2022-08-16T00:40:11;7.77;;;7.07;;
10154;SDS011;5118;48.570;7.916;2022-08-16T00:43:03;7.43;;;6.73;;
10154;SDS011;5118;48.570;7.916;2022-08-16T00:45:40;7.60;;;6.90;;
10154;SDS011;5118;48.570;7.916;2022-08-16T00:48:26;8.10;;;7.40;;
10154;SDS011;5118;48.570;7.916;2022-08-16T00:51:10;7.47;;;6.77;;
10154;SDS011;5118;48.570;7.916;2022-08-16T00:53:43;7.53;;;6.90;;
10154;SDS011;5118;48.570;7.916;2022-08-16T00:56:14;9.13;;;7.30;;
10154;SDS011;5118;48.570;7.916;2022-08-16T00:59:05;6.93;;;6.43;;
10154;SDS011;5118;48.570;7.916;2022-08-16T01:01:42;7.40;;;6.70;;
10154;SDS011;5118;48.570;7.916;2022-08-16T01:04:11;7.17;;;6.53;;
10154;SDS011;5118;48.570;7.916;2022-08-16T01:06:56;7.57;;;6.80;;
10154;SDS011;5118;48.570;7.916;2022-08-16T01:09:28;7.63;;;6.93;;
10154;SDS011;5118;48.570;7.916;2022-08-16T01:11:59;7.30;;;6.60;;
10154;SDS011;5118;48.570;7.916;2022-08-16T01:14:35;7.17;;;6.47;;
10154;SDS011;5118;48.570;7.916;2022-08-16T01:17:10;7.43;;;6.63;;
10154;SDS011;5118;48.570;7.916;2022-08-16T01:19:43;6.90;;;6.30;;
10154;SDS011;5118;48.570;7.916;2022-08-16T01:22:15;7.13;;;6.50;;
10154;SDS011;5118;48.570;7.916;2022-08-16T01:25:17;7.00;;;6.40;;
10154;SDS011;5118;48.570;7.916;2022-08-16T01:28:00;7.50;;;6.70;;
10154;SDS011;5118;48.570;7.916;2022-08-16T01:30:33;7.63;;;6.90;;
10154;SDS011;5118;48.570;7.916;2022-08-16T01:33:16;7.50;;;6.67;;
10154;SDS011;5118;48.570;7.916;2022-08-16T01:35:50;7.20;;;6.50;;
10154;SDS011;5118;48.570;7.916;2022-08-16T01:38:25;7.10;;;6.53;;
10154;SDS011;5118;48.570;7.916;2022-08-16T01:41:00;7.07;;;6.37;;
10154;SDS011;5118;48.570;7.916;2022-08-16T01:43:32;7.67;;;6.87;;
10154;SDS011;5118;48.570;7.916;2022-08-16T01:46:04;7.17;;;6.47;;
10154;SDS011;5118;48.570;7.916;2022-08-16T01:48:58;8.07;;;6.30;;
10154;SDS011;5118;48.570;7.916;2022-08-16T01:51:30;6.90;;;6.30;;
10154;SDS011;5118;48.570;7.916;2022-08-16T01:54:06;7.30;;;6.67;;
10154;SDS011;5118;48.570;7.916;2022-08-16T01:56:48;6.87;;;6.13;;
10154;SDS011;5118;48.570;7.916;2022-08-16T01:59:19;7.50;;;6.77;;
10154;SDS011;5118;48.570;7.916;2022-08-16T02:01:49;7.50;;;6.80;;
10154;SDS011;5118;48.570;7.916;2022-08-16T02:04:28;7.13;;;6.43;;
10154;SDS011;5118;48.570;7.916;2022-08-16T02:07:18;7.17;;;6.57;;
10154;SDS011;5118;48.570;7.916;2022-08-16T02:09:49;6.97;;;6.27;;
10154;SDS011;5118;48.570;7.916;2022-08-16T02:12:25;7.37;;;6.67;;
10154;SDS011;5118;48.570;7.916;2022-08-16T02:15:15;6.47;;;5.90;;
10154;SDS011;5118;48.570;7.916;2022-08-16T02:17:53;7.10;;;6.40;;
10154;SDS011;5118;48.570;7.916;2022-08-16T02:20:23;7.30;;;6.53;;
10154;SDS011;5118;48.570;7.916;2022-08-16T02:22:53;6.90;;;6.30;;
10154;SDS011;5118;48.570;7.916;2022-08-16T02:25:25;7.07;;;6.43;;
10154;SDS011;5118;48.570;7.916;2022-08-16T02:28:15;8.63;;;6.57;;
10154;SDS011;5118;48.570;7.916;2022-08-16T02:30:45;7.20;;;6.60;;
10154;SDS011;5118;48.570;7.916;2022-08-16T02:33:17;8.13;;;6.23;;
10154;SDS011;5118;48.570;7.916;2022-08-16T02:36:09;7.43;;;6.40;;
10154;SDS011;5118;48.570;7.916;2022-08-16T02:38:59;7.50;;;6.40;;
10154;SDS011;5118;48.570;7.916;2022-08-16T02:41:29;7.03;;;6.43;;
10154;SDS011;5118;48.570;7.916;2022-08-16T02:44:04;6.77;;;6.17;;
10154;SDS011;5118;48.570;7.916;2022-08-16T02:46:34;7.43;;;6.40;;
10154;SDS011;5118;48.570;7.916;2022-08-16T02:49:04;7.47;;;6.77;;
10154;SDS011;5118;48.570;7.916;2022-08-16T02:51:34;7.10;;;6.50;;
10154;SDS011;5118;48.570;7.916;2022-08-16T02:54:07;7.00;;;6.20;;
10154;SDS011;5118;48.570;7.916;2022-08-16T02:56:36;7.53;;;6.70;;
10154;SDS011;5118;48.570;7.916;2022-08-16T02:59:07;7.10;;;6.50;;
10154;SDS011;5118;48.570;7.916;2022-08-16T03:01:41;7.27;;;6.50;;
10154;SDS011;5118;48.570;7.916;2022-08-16T03:04:16;7.80;;;7.20;;
10154;SDS011;5118;48.570;7.916;2022-08-16T03:07:06;8.00;;;7.30;;
10154;SDS011;5118;48.570;7.916;2022-08-16T03:09:40;8.23;;;7.53;;
10154;SDS011;5118;48.570;7.916;2022-08-16T03:12:12;8.47;;;7.67;;
10154;SDS011;5118;48.570;7.916;2022-08-16T03:14:44;8.90;;;8.00;;
10154;SDS011;5118;48.570;7.916;2022-08-16T03:17:15;8.20;;;7.40;;
10154;SDS011;5118;48.570;7.916;2022-08-16T03:19:48;8.80;;;7.90;;
10154;SDS011;5118;48.570;7.916;2022-08-16T03:22:31;8.20;;;7.40;;
10154;SDS011;5118;48.570;7.916;2022-08-16T03:25:06;8.10;;;7.40;;
10154;SDS011;5118;48.570;7.916;2022-08-16T03:27:38;8.83;;;8.13;;
10154;SDS011;5118;48.570;7.916;2022-08-16T03:30:16;8.20;;;7.53;;
10154;SDS011;5118;48.570;7.916;2022-08-16T03:32:57;8.93;;;8.00;;
10154;SDS011;5118;48.570;7.916;2022-08-16T03:35:32;8.57;;;7.77;;
10154;SDS011;5118;48.570;7.916;2022-08-16T03:38:17;9.10;;;8.20;;
10154;SDS011;5118;48.570;7.916;2022-08-16T03:41:06;8.77;;;8.07;;
10154;SDS011;5118;48.570;7.916;2022-08-16T03:43:54;8.67;;;7.87;;
10154;SDS011;5118;48.570;7.916;2022-08-16T03:46:28;9.77;;;8.17;;
10154;SDS011;5118;48.570;7.916;2022-08-16T03:49:18;9.10;;;8.27;;
10154;SDS011;5118;48.570;7.916;2022-08-16T03:51:50;8.93;;;8.10;;
10154;SDS011;5118;48.570;7.916;2022-08-16T03:54:23;9.30;;;8.40;;
10154;SDS011;5118;48.570;7.916;2022-08-16T03:56:54;9.47;;;8.70;;
10154;SDS011;5118;48.570;7.916;2022-08-16T03:59:28;9.87;;;8.87;;
10154;SDS011;5118;48.570;7.916;2022-08-16T04:02:03;9.87;;;8.90;;
10154;SDS011;5118;48.570;7.916;2022-08-16T04:04:48;9.10;;;8.30;;
10154;SDS011;5118;48.570;7.916;2022-08-16T04:07:17;9.20;;;8.40;;
10154;SDS011;5118;48.570;7.916;2022-08-16T04:09:46;9.57;;;8.70;;
10154;SDS011;5118;48.570;7.916;2022-08-16T04:12:15;9.73;;;8.63;;
10154;SDS011;5118;48.570;7.916;2022-08-16T04:15:07;9.87;;;8.90;;
10154;SDS011;5118;48.570;7.916;2022-08-16T04:17:52;9.40;;;8.60;;
10154;SDS011;5118;48.570;7.916;2022-08-16T04:20:20;9.77;;;8.77;;
10154;SDS011;5118;48.570;7.916;2022-08-16T04:23:01;9.83;;;8.83;;
10154;SDS011;5118;48.570;7.916;2022-08-16T04:25:35;9.73;;;8.83;;
10154;SDS011;5118;48.570;7.916;2022-08-16T04:28:07;10.33;;;9.27;;
10154;SDS011;5118;48.570;7.916;2022-08-16T04:30:56;10.20;;;9.27;;
10154;SDS011;5118;48.570;7.916;2022-08-16T04:33:27;10.00;;;9.20;;
10154;SDS011;5118;48.570;7.916;2022-08-16T04:36:00;9.70;;;8.70;;
10154;SDS011;5118;48.570;7.916;2022-08-16T04:38:31;9.73;;;8.83;;
10154;SDS011;5118;48.570;7.916;2022-08-16T04:41:01;9.83;;;8.57;;
10154;SDS011;5118;48.570;7.916;2022-08-16T04:43:31;10.00;;;9.10;;
10154;SDS011;5118;48.570;7.916;2022-08-16T04:46:10;9.50;;;8.70;;
10154;SDS011;5118;48.570;7.916;2022-08-16T04:49:01;9.40;;;8.50;;
10154;SDS011;5118;48.570;7.916;2022-08-16T04:51:30;10.27;;;8.17;;
10154;SDS011;5118;48.570;7.916;2022-08-16T04:54:02;9.20;;;8.30;;
10154;SDS011;5118;48.570;7.916;2022-08-16T04:56:32;9.20;;;8.50;;
10154;SDS011;5118;48.570;7.916;2022-08-16T04:59:11;9.73;;;8.83;;
10154;SDS011;5118;48.570;7.916;2022-08-16T05:01:43;9.70;;;8.70;;
10154;SDS011;5118;48.570;7.916;2022-08-16T05:04:25;9.23;;;8.33;;
10154;SDS011;5118;48.570;7.916;2022-08-16T05:06:56;9.77;;;8.80;;
10154;SDS011;5118;48.570;7.916;2022-08-16T05:09:40;9.67;;;8.77;;
10154;SDS011;5118;48.570;7.916;2022-08-16T05:12:15;9.77;;;8.87;;
10154;SDS011;5118;48.570;7.916;2022-08-16T05:14:56;9.97;;;9.10;;
10154;SDS011;5118;48.570;7.916;2022-08-16T05:17:29;10.90;;;9.90;;
10154;SDS011;5118;48.570;7.916;2022-08-16T05:20:02;14.17;;;12.77;;
10154;SDS011;5118;48.570;7.916;2022-08-16T05:22:54;10.53;;;9.47;;
10154;SDS011;5118;48.570;7.916;2022-08-16T05:25:22;9.60;;;8.70;;
10154;SDS011;5118;48.570;7.916;2022-08-16T05:28:11;10.30;;;9.13;;
10154;SDS011;5118;48.570;7.916;2022-08-16T05:30:45;10.03;;;9.23;;
10154;SDS011;5118;48.570;7.916;2022-08-16T05:33:20;9.77;;;8.83;;
10154;SDS011;5118;48.570;7.916;2022-08-16T05:35:50;9.90;;;8.90;;
10154;SDS011;5118;48.570;7.916;2022-08-16T05:38:35;11.07;;;8.80;;
10154;SDS011;5118;48.570;7.916;2022-08-16T05:41:09;10.23;;;9.23;;
10154;SDS011;5118;48.570;7.916;2022-08-16T05:43:42;10.00;;;9.10;;
10154;SDS011;5118;48.570;7.916;2022-08-16T05:46:17;9.27;;;8.37;;
10154;SDS011;5118;48.570;7.916;2022-08-16T05:49:02;9.80;;;8.90;;
10154;SDS011;5118;48.570;7.916;2022-08-16T05:51:38;11.43;;;8.87;;
10154;SDS011;5118;48.570;7.916;2022-08-16T05:54:10;10.93;;;9.70;;
10154;SDS011;5118;48.570;7.916;2022-08-16T05:56:41;9.63;;;8.60;;
10154;SDS011;5118;48.570;7.916;2022-08-16T05:59:16;9.63;;;8.73;;
10154;SDS011;5118;48.570;7.916;2022-08-16T06:01:47;9.93;;;8.97;;
10154;SDS011;5118;48.570;7.916;2022-08-16T06:04:22;8.90;;;8.03;;
10154;SDS011;5118;48.570;7.916;2022-08-16T06:07:06;10.17;;;9.27;;
10154;SDS011;5118;48.570;7.916;2022-08-16T06:09:57;10.07;;;9.07;;
10154;SDS011;5118;48.570;7.916;2022-08-16T06:12:29;9.80;;;8.80;;
10154;SDS011;5118;48.570;7.916;2022-08-16T06:15:04;10.00;;;9.10;;
10154;SDS011;5118;48.570;7.916;2022-08-16T06:17:38;9.57;;;8.67;;
10154;SDS011;5118;48.570;7.916;2022-08-16T06:20:22;10.07;;;8.97;;
10154;SDS011;5118;48.570;7.916;2022-08-16T06:23:06;10.07;;;8.67;;
10154;SDS011;5118;48.570;7.916;2022-08-16T06:26:13;9.33;;;8.43;;
10154;SDS011;5118;48.570;7.916;2022-08-16T06:28:45;9.02;;;8.23;;
10154;SDS011;5118;48.570;7.916;2022-08-16T06:31:20;9.13;;;8.32;;
10154;SDS011;5118;48.570;7.916;2022-08-16T06:33:52;10.27;;;7.97;;
10154;SDS011;5118;48.570;7.916;2022-08-16T06:36:21;8.15;;;7.45;;
10154;SDS011;5118;48.570;7.916;2022-08-16T06:39:14;7.72;;;6.90;;
10154;SDS011;5118;48.570;7.916;2022-08-16T06:41:54;8.65;;;7.57;;
10154;SDS011;5118;48.570;7.916;2022-08-16T06:44:42;8.27;;;7.47;;
10154;SDS011;5118;48.570;7.916;2022-08-16T06:47:46;8.50;;;7.70;;
10154;SDS011;5118;48.570;7.916;2022-08-16T06:50:20;9.05;;;7.43;;
10154;SDS011;5118;48.570;7.916;2022-08-16T06:53:00;8.00;;;7.30;;
10154;SDS011;5118;48.570;7.916;2022-08-16T06:56:02;8.88;;;7.93;;
10154;SDS011;5118;48.570;7.916;2022-08-16T06:59:14;8.63;;;7.60;;
10154;SDS011;5118;48.570;7.916;2022-08-16T07:01:47;9.40;;;7.10;;
10154;SDS011;5118;48.570;7.916;2022-08-16T07:04:23;8.48;;;7.68;;
10154;SDS011;5118;48.570;7.916;2022-08-16T07:07:06;7.68;;;6.93;;
10154;SDS011;5118;48.570;7.916;2022-08-16T07:09:37;8.07;;;7.28;;
10154;SDS011;5118;48.570;7.916;2022-08-16T07:12:08;9.88;;;7.32;;
10154;SDS011;5118;48.570;7.916;2022-08-16T07:14:42;7.82;;;7.05;;
10154;SDS011;5118;48.570;7.916;2022-08-16T07:17:15;7.43;;;6.70;;
10154;SDS011;5118;48.570;7.916;2022-08-16T07:19:51;7.53;;;6.82;;
10154;SDS011;5118;48.570;7.916;2022-08-16T07:22:49;7.10;;;6.50;;
10154;SDS011;5118;48.570;7.916;2022-08-16T07:25:35;7.32;;;6.72;;
10154;SDS011;5118;48.570;7.916;2022-08-16T07:28:09;8.15;;;7.22;;
10154;SDS011;5118;48.570;7.916;2022-08-16T07:30:51;9.05;;;7.10;;
10154;SDS011;5118;48.570;7.916;2022-08-16T07:33:41;7.80;;;7.00;;
10154;SDS011;5118;48.570;7.916;2022-08-16T07:36:25;7.93;;;6.97;;
10154;SDS011;5118;48.570;7.916;2022-08-16T07:38:57;7.47;;;6.75;;
10154;SDS011;5118;48.570;7.916;2022-08-16T07:41:30;8.68;;;6.78;;
10154;SDS011;5118;48.570;7.916;2022-08-16T07:44:02;7.10;;;6.40;;
10154;SDS011;5118;48.570;7.916;2022-08-16T07:46:42;7.65;;;6.15;;
10154;SDS011;5118;48.570;7.916;2022-08-16T07:49:17;7.07;;;6.47;;
10154;SDS011;5118;48.570;7.916;2022-08-16T07:51:45;8.48;;;6.85;;
10154;SDS011;5118;48.570;7.916;2022-08-16T07:54:20;7.50;;;6.68;;
10154;SDS011;5118;48.570;7.916;2022-08-16T07:57:08;9.52;;;7.00;;
10154;SDS011;5118;48.570;7.916;2022-08-16T07:59:40;8.70;;;6.70;;
10154;SDS011;5118;48.570;7.916;2022-08-16T08:02:15;7.68;;;6.88;;
10154;SDS011;5118;48.570;7.916;2022-08-16T08:04:51;7.13;;;6.25;;
10154;SDS011;5118;48.570;7.916;2022-08-16T08:07:21;8.30;;;6.20;;
10154;SDS011;5118;48.570;7.916;2022-08-16T08:09:54;6.82;;;5.95;;
10154;SDS011;5118;48.570;7.916;2022-08-16T08:12:24;7.22;;;6.53;;
10154;SDS011;5118;48.570;7.916;2022-08-16T08:15:03;7.30;;;6.60;;
10154;SDS011;5118;48.570;7.916;2022-08-16T08:17:37;8.50;;;6.90;;
10154;SDS011;5118;48.570;7.916;2022-08-16T08:20:12;8.00;;;7.30;;
10154;SDS011;5118;48.570;7.916;2022-08-16T08:22:53;7.70;;;7.00;;
10154;SDS011;5118;48.570;7.916;2022-08-16T08:25:32;7.85;;;6.80;;
10154;SDS011;5118;48.570;7.916;2022-08-16T08:28:20;6.75;;;6.05;;
10154;SDS011;5118;48.570;7.916;2022-08-16T08:30:55;7.78;;;7.07;;
10154;SDS011;5118;48.570;7.916;2022-08-16T08:33:32;8.98;;;6.45;;
10154;SDS011;5118;48.570;7.916;2022-08-16T08:36:03;7.90;;;6.30;;
10154;SDS011;5118;48.570;7.916;2022-08-16T08:38:36;7.60;;;6.70;;
10154;SDS011;5118;48.570;7.916;2022-08-16T08:41:13;6.18;;;5.65;;
10154;SDS011;5118;48.570;7.916;2022-08-16T08:43:50;7.72;;;5.80;;
10154;SDS011;5118;48.570;7.916;2022-08-16T08:46:21;8.57;;;7.60;;
10154;SDS011;5118;48.570;7.916;2022-08-16T08:48:54;7.60;;;6.82;;
10154;SDS011;5118;48.570;7.916;2022-08-16T08:51:27;6.68;;;5.97;;
10154;SDS011;5118;48.570;7.916;2022-08-16T08:54:02;8.88;;;6.95;;
10154;SDS011;5118;48.570;7.916;2022-08-16T08:56:33;7.00;;;6.30;;
10154;SDS011;5118;48.570;7.916;2022-08-16T08:59:15;7.63;;;6.05;;
10154;SDS011;5118;48.570;7.916;2022-08-16T09:01:49;6.78;;;6.15;;
10154;SDS011;5118;48.570;7.916;2022-08-16T09:04:43;7.18;;;6.07;;
10154;SDS011;5118;48.570;7.916;2022-08-16T09:07:15;7.82;;;6.90;;
10154;SDS011;5118;48.570;7.916;2022-08-16T09:09:45;6.93;;;6.22;;
10154;SDS011;5118;48.570;7.916;2022-08-16T09:12:33;6.97;;;6.30;;
10154;SDS011;5118;48.570;7.916;2022-08-16T09:15:08;7.53;;;6.75;;
10154;SDS011;5118;48.570;7.916;2022-08-16T09:17:42;6.95;;;6.32;;
10154;SDS011;5118;48.570;7.916;2022-08-16T09:20:20;7.90;;;7.10;;
10154;SDS011;5118;48.570;7.916;2022-08-16T09:22:52;7.85;;;7.05;;
10154;SDS011;5118;48.570;7.916;2022-08-16T09:25:27;7.95;;;7.25;;
10154;SDS011;5118;48.570;7.916;2022-08-16T09:28:03;9.38;;;6.90;;
10154;SDS011;5118;48.570;7.916;2022-08-16T09:30:41;6.85;;;6.32;;
10154;SDS011;5118;48.570;7.916;2022-08-16T09:33:13;7.47;;;6.80;;
10154;SDS011;5118;48.570;7.916;2022-08-16T09:35:47;8.70;;;6.70;;
10154;SDS011;5118;48.570;7.916;2022-08-16T09:38:20;7.95;;;6.63;;
10154;SDS011;5118;48.570;7.916;2022-08-16T09:40:58;7.40;;;6.70;;
10154;SDS011;5118;48.570;7.916;2022-08-16T09:43:28;6.45;;;5.90;;
10154;SDS011;5118;48.570;7.916;2022-08-16T09:46:17;6.90;;;6.30;;
10154;SDS011;5118;48.570;7.916;2022-08-16T09:49:08;6.60;;;5.93;;
10154;SDS011;5118;48.570;7.916;2022-08-16T09:51:37;8.10;;;6.75;;
10154;SDS011;5118;48.570;7.916;2022-08-16T09:54:06;6.55;;;5.75;;
10154;SDS011;5118;48.570;7.916;2022-08-16T09:56:42;7.30;;;6.50;;
10154;SDS011;5118;48.570;7.916;2022-08-16T09:59:18;6.78;;;6.28;;
10154;SDS011;5118;48.570;7.916;2022-08-16T10:01:51;6.10;;;5.53;;
10154;SDS011;5118;48.570;7.916;2022-08-16T10:04:22;6.15;;;5.53;;
10154;SDS011;5118;48.570;7.916;2022-08-16T10:07:00;6.43;;;5.80;;
10154;SDS011;5118;48.570;7.916;2022-08-16T10:09:41;6.22;;;5.63;;
10154;SDS011;5118;48.570;7.916;2022-08-16T10:12:23;5.95;;;5.20;;
10154;SDS011;5118;48.570;7.916;2022-08-16T10:15:11;7.97;;;5.35;;
10154;SDS011;5118;48.570;7.916;2022-08-16T10:17:44;6.10;;;5.22;;
10154;SDS011;5118;48.570;7.916;2022-08-16T10:20:29;7.55;;;5.38;;
10154;SDS011;5118;48.570;7.916;2022-08-16T10:23:00;5.45;;;4.95;;
10154;SDS011;5118;48.570;7.916;2022-08-16T10:25:33;5.43;;;4.82;;
10154;SDS011;5118;48.570;7.916;2022-08-16T10:28:25;7.38;;;4.78;;
10154;SDS011;5118;48.570;7.916;2022-08-16T10:30:58;5.10;;;4.80;;
10154;SDS011;5118;48.570;7.916;2022-08-16T10:33:30;5.35;;;4.80;;
10154;SDS011;5118;48.570;7.916;2022-08-16T10:36:01;5.68;;;4.95;;
10154;SDS011;5118;48.570;7.916;2022-08-16T10:38:34;4.60;;;4.20;;
10154;SDS011;5118;48.570;7.916;2022-08-16T10:41:04;5.13;;;4.63;;
10154;SDS011;5118;48.570;7.916;2022-08-16T10:43:33;4.95;;;4.55;;
10154;SDS011;5118;48.570;7.916;2022-08-16T10:46:02;5.10;;;4.60;;
10154;SDS011;5118;48.570;7.916;2022-08-16T10:48:52;4.60;;;4.20;;
10154;SDS011;5118;48.570;7.916;2022-08-16T10:51:23;5.00;;;4.60;;
10154;SDS011;5118;48.570;7.916;2022-08-16T10:54:00;4.63;;;4.22;;
10154;SDS011;5118;48.570;7.916;2022-08-16T10:56:30;4.93;;;4.00;;
10154;SDS011;5118;48.570;7.916;2022-08-16T10:59:20;4.47;;;4.13;;
10154;SDS011;5118;48.570;7.916;2022-08-16T11:02:09;5.05;;;3.53;;
10154;SDS011;5118;48.570;7.916;2022-08-16T11:04:58;4.20;;;3.80;;
10154;SDS011;5118;48.570;7.916;2022-08-16T11:07:37;4.30;;;4.00;;
10154;SDS011;5118;48.570;7.916;2022-08-16T11:10:11;5.97;;;3.78;;
10154;SDS011;5118;48.570;7.916;2022-08-16T11:13:01;4.18;;;3.70;;
10154;SDS011;5118;48.570;7.916;2022-08-16T11:15:49;3.90;;;3.58;;
10154;SDS011;5118;48.570;7.916;2022-08-16T11:18:21;3.95;;;3.45;;
10154;SDS011;5118;48.570;7.916;2022-08-16T11:21:10;4.65;;;3.15;;
10154;SDS011;5118;48.570;7.916;2022-08-16T11:23:56;3.40;;;3.10;;
10154;SDS011;5118;48.570;7.916;2022-08-16T11:26:25;5.25;;;3.35;;
10154;SDS011;5118;48.570;7.916;2022-08-16T11:28:54;4.10;;;3.70;;
10154;SDS011;5118;48.570;7.916;2022-08-16T11:31:40;4.05;;;3.20;;
10154;SDS011;5118;48.570;7.916;2022-08-16T11:34:19;3.88;;;3.30;;
10154;SDS011;5118;48.570;7.916;2022-08-16T11:36:47;3.33;;;3.03;;
10154;SDS011;5118;48.570;7.916;2022-08-16T11:39:28;3.25;;;2.85;;
10154;SDS011;5118;48.570;7.916;2022-08-16T11:41:59;3.28;;;3.05;;
10154;SDS011;5118;48.570;7.916;2022-08-16T11:44:42;3.85;;;3.03;;
10154;SDS011;5118;48.570;7.916;2022-08-16T11:47:22;4.35;;;2.95;;
10154;SDS011;5118;48.570;7.916;2022-08-16T11:49:51;3.10;;;2.90;;
10154;SDS011;5118;48.570;7.916;2022-08-16T11:52:19;3.95;;;3.00;;
10154;SDS011;5118;48.570;7.916;2022-08-16T11:54:54;5.72;;;3.00;;
10154;SDS011;5118;48.570;7.916;2022-08-16T11:57:25;3.20;;;2.90;;
10154;SDS011;5118;48.570;7.916;2022-08-16T11:59:54;2.65;;;2.45;;
10154;SDS011;5118;48.570;7.916;2022-08-16T12:02:23;3.92;;;2.80;;
10154;SDS011;5118;48.570;7.916;2022-08-16T12:04:58;3.72;;;2.80;;
10154;SDS011;5118;48.570;7.916;2022-08-16T12:07:27;3.35;;;3.00;;
10154;SDS011;5118;48.570;7.916;2022-08-16T12:10:00;3.03;;;2.58;;
10154;SDS011;5118;48.570;7.916;2022-08-16T12:12:29;3.17;;;2.88;;
10154;SDS011;5118;48.570;7.916;2022-08-16T12:14:59;3.17;;;2.90;;
10154;SDS011;5118;48.570;7.916;2022-08-16T12:17:28;3.72;;;3.42;;
10154;SDS011;5118;48.570;7.916;2022-08-16T12:19:58;3.10;;;2.80;;
10154;SDS011;5118;48.570;7.916;2022-08-16T12:22:30;3.95;;;3.10;;
10154;SDS011;5118;48.570;7.916;2022-08-16T12:25:08;3.08;;;2.80;;
10154;SDS011;5118;48.570;7.916;2022-08-16T12:27:40;3.85;;;3.13;;
10154;SDS011;5118;48.570;7.916;2022-08-16T12:30:13;3.72;;;3.00;;
10154;SDS011;5118;48.570;7.916;2022-08-16T12:32:53;4.32;;;3.10;;
10154;SDS011;5118;48.570;7.916;2022-08-16T12:35:24;4.22;;;2.90;;
10154;SDS011;5118;48.570;7.916;2022-08-16T12:37:55;2.80;;;2.60;;
10154;SDS011;5118;48.570;7.916;2022-08-16T12:40:27;2.83;;;2.60;;
10154;SDS011;5118;48.570;7.916;2022-08-16T12:42:59;3.35;;;2.78;;
10154;SDS011;5118;48.570;7.916;2022-08-16T12:45:29;3.40;;;3.03;;
10154;SDS011;5118;48.570;7.916;2022-08-16T12:48:02;3.92;;;2.70;;
10154;SDS011;5118;48.570;7.916;2022-08-16T12:51:09;3.25;;;2.95;;
10154;SDS011;5118;48.570;7.916;2022-08-16T12:53:50;4.20;;;2.85;;
10154;SDS011;5118;48.570;7.916;2022-08-16T12:56:22;6.38;;;3.45;;
10154;SDS011;5118;48.570;7.916;2022-08-16T12:58:53;3.55;;;2.95;;
10154;SDS011;5118;48.570;7.916;2022-08-16T13:01:25;3.47;;;2.63;;
10154;SDS011;5118;48.570;7.916;2022-08-16T13:03:56;3.25;;;2.85;;
10154;SDS011;5118;48.570;7.916;2022-08-16T13:06:45;3.08;;;2.67;;
10154;SDS011;5118;48.570;7.916;2022-08-16T13:09:18;3.22;;;2.70;;
10154;SDS011;5118;48.570;7.916;2022-08-16T13:12:01;3.47;;;2.85;;
10154;SDS011;5118;48.570;7.916;2022-08-16T13:14:42;3.20;;;2.55;;
10154;SDS011;5118;48.570;7.916;2022-08-16T13:17:12;2.70;;;2.50;;
10154;SDS011;5118;48.570;7.916;2022-08-16T13:19:46;2.35;;;2.15;;
10154;SDS011;5118;48.570;7.916;2022-08-16T13:22:34;2.75;;;2.42;;
10154;SDS011;5118;48.570;7.916;2022-08-16T13:25:11;2.70;;;2.47;;
10154;SDS011;5118;48.570;7.916;2022-08-16T13:27:49;3.28;;;2.53;;
10154;SDS011;5118;48.570;7.916;2022-08-16T13:30:40;2.78;;;2.30;;
10154;SDS011;5118;48.570;7.916;2022-08-16T13:33:11;3.40;;;2.60;;
10154;SDS011;5118;48.570;7.916;2022-08-16T13:35:55;2.60;;;2.40;;
10154;SDS011;5118;48.570;7.916;2022-08-16T13:38:27;4.20;;;2.75;;
10154;SDS011;5118;48.570;7.916;2022-08-16T13:41:03;2.47;;;2.10;;
10154;SDS011;5118;48.570;7.916;2022-08-16T13:43:36;2.40;;;2.20;;
10154;SDS011;5118;48.570;7.916;2022-08-16T13:46:06;2.50;;;2.30;;
10154;SDS011;5118;48.570;7.916;2022-08-16T13:48:35;3.50;;;2.30;;
10154;SDS011;5118;48.570;7.916;2022-08-16T13:51:11;2.45;;;2.35;;
10154;SDS011;5118;48.570;7.916;2022-08-16T13:53:44;3.33;;;2.47;;
10154;SDS011;5118;48.570;7.916;2022-08-16T13:56:23;4.13;;;2.35;;
10154;SDS011;5118;48.570;7.916;2022-08-16T13:59:05;2.85;;;2.40;;
10154;SDS011;5118;48.570;7.916;2022-08-16T14:01:47;2.58;;;2.30;;
10154;SDS011;5118;48.570;7.916;2022-08-16T14:04:21;5.05;;;2.40;;
10154;SDS011;5118;48.570;7.916;2022-08-16T14:06:52;3.10;;;2.70;;
10154;SDS011;5118;48.570;7.916;2022-08-16T14:09:22;3.08;;;2.47;;
10154;SDS011;5118;48.570;7.916;2022-08-16T14:11:53;3.50;;;2.40;;
10154;SDS011;5118;48.570;7.916;2022-08-16T14:14:24;2.72;;;2.50;;
10154;SDS011;5118;48.570;7.916;2022-08-16T14:16:55;2.50;;;2.33;;
10154;SDS011;5118;48.570;7.916;2022-08-16T14:19:26;3.20;;;2.42;;
10154;SDS011;5118;48.570;7.916;2022-08-16T14:21:58;5.55;;;2.45;;
10154;SDS011;5118;48.570;7.916;2022-08-16T14:24:50;2.60;;;2.40;;
10154;SDS011;5118;48.570;7.916;2022-08-16T14:27:22;2.60;;;2.40;;
10154;SDS011;5118;48.570;7.916;2022-08-16T14:29:54;3.00;;;2.28;;
10154;SDS011;5118;48.570;7.916;2022-08-16T14:32:25;2.80;;;2.55;;
10154;SDS011;5118;48.570;7.916;2022-08-16T14:35:00;2.92;;;2.58;;
10154;SDS011;5118;48.570;7.916;2022-08-16T14:37:29;5.78;;;2.70;;
10154;SDS011;5118;48.570;7.916;2022-08-16T14:39:58;2.60;;;2.40;;
10154;SDS011;5118;48.570;7.916;2022-08-16T14:42:29;2.80;;;2.60;;
10154;SDS011;5118;48.570;7.916;2022-08-16T14:44:59;2.80;;;2.60;;
10154;SDS011;5118;48.570;7.916;2022-08-16T14:47:27;4.55;;;3.30;;
10154;SDS011;5118;48.570;7.916;2022-08-16T14:50:00;4.03;;;2.80;;
10154;SDS011;5118;48.570;7.916;2022-08-16T14:52:31;3.25;;;2.90;;
10154;SDS011;5118;48.570;7.916;2022-08-16T14:55:20;3.80;;;3.00;;
10154;SDS011;5118;48.570;7.916;2022-08-16T14:57:50;3.40;;;2.80;;
10154;SDS011;5118;48.570;7.916;2022-08-16T15:00:22;3.10;;;2.83;;
10154;SDS011;5118;48.570;7.916;2022-08-16T15:03:00;3.95;;;2.90;;
10154;SDS011;5118;48.570;7.916;2022-08-16T15:05:31;4.00;;;3.00;;
10154;SDS011;5118;48.570;7.916;2022-08-16T15:08:01;3.38;;;2.90;;
10154;SDS011;5118;48.570;7.916;2022-08-16T15:10:30;5.00;;;2.83;;
10154;SDS011;5118;48.570;7.916;2022-08-16T15:13:03;3.78;;;2.78;;
10154;SDS011;5118;48.570;7.916;2022-08-16T15:15:37;2.97;;;2.78;;
10154;SDS011;5118;48.570;7.916;2022-08-16T15:18:07;3.72;;;2.80;;
10154;SDS011;5118;48.570;7.916;2022-08-16T15:20:49;3.65;;;2.47;;
10154;SDS011;5118;48.570;7.916;2022-08-16T15:23:20;2.95;;;2.40;;
10154;SDS011;5118;48.570;7.916;2022-08-16T15:25:51;4.25;;;2.65;;
10154;SDS011;5118;48.570;7.916;2022-08-16T15:28:30;2.58;;;2.38;;
10154;SDS011;5118;48.570;7.916;2022-08-16T15:31:01;2.67;;;2.30;;
10154;SDS011;5118;48.570;7.916;2022-08-16T15:33:33;2.33;;;2.13;;
10154;SDS011;5118;48.570;7.916;2022-08-16T15:36:09;3.63;;;2.80;;
10154;SDS011;5118;48.570;7.916;2022-08-16T15:38:43;2.90;;;2.70;;
10154;SDS011;5118;48.570;7.916;2022-08-16T15:44:27;3.08;;;2.60;;
10154;SDS011;5118;48.570;7.916;2022-08-16T15:47:19;3.10;;;2.72;;
10154;SDS011;5118;48.570;7.916;2022-08-16T15:49:51;3.03;;;2.70;;
10154;SDS011;5118;48.570;7.916;2022-08-16T15:52:23;2.67;;;2.47;;
10154;SDS011;5118;48.570;7.916;2022-08-16T15:54:56;2.83;;;2.30;;
10154;SDS011;5118;48.570;7.916;2022-08-16T15:57:39;3.55;;;2.47;;
10154;SDS011;5118;48.570;7.916;2022-08-16T16:00:08;3.80;;;2.60;;